Time;durP1;ratioP1;P1;durP2;ratioP2;P2;SDS_P1;SDS_P2;PMS_P1;PMS_P2;Temp;Humidity;BMP_temperature;BMP_pressure;BME280_temperature;BME280_humidity;BME280_pressure;Samples;Min_cycle;Max_cycle;Signal;HPM_P1;HPM_P2
2022/08/08 00:01:43;;;;;;;5.80;4.50;;;;;;;14.67;100.00;102428.34;4972862;28;20027;-65
2022/08/08 00:04:44;;;;;;;7.28;5.03;;;;;;;14.72;100.00;102452.94;4989331;28;20034;-64
2022/08/08 00:07:15;;;;;;;7.75;4.95;;;;;;;14.64;100.00;102453.13;4975269;28;20046;-66
2022/08/08 00:10:02;;;;;;;6.88;5.07;;;;;;;14.65;100.00;102454.84;4976246;28;20372;-66
2022/08/08 00:12:46;;;;;;;7.57;4.65;;;;;;;14.61;100.00;102436.44;4976197;28;20042;-65
2022/08/08 00:15:18;;;;;;;7.80;5.28;;;;;;;14.28;100.00;102394.78;4976048;28;20458;-66
2022/08/08 00:17:58;;;;;;;8.10;5.15;;;;;;;14.53;100.00;102456.94;4975857;28;20042;-64
2022/08/08 00:20:54;;;;;;;7.28;5.05;;;;;;;14.46;100.00;102442.09;4976152;28;20066;-66
2022/08/08 00:23:28;;;;;;;7.15;4.55;;;;;;;14.37;100.00;102447.59;4975423;28;20051;-65
2022/08/08 00:25:57;;;;;;;8.32;5.25;;;;;;;14.25;100.00;102440.75;4990948;28;20055;-66
2022/08/08 00:28:33;;;;;;;6.57;5.88;;;;;;;13.91;100.00;102381.50;4991031;28;20113;-65
2022/08/08 00:30:59;;;;;;;6.60;5.65;;;;;;;14.05;100.00;102400.59;4975738;28;20070;-67
2022/08/08 00:33:29;;;;;;;7.57;5.53;;;;;;;14.17;100.00;102431.25;4974410;28;20081;-66
2022/08/08 00:36:07;;;;;;;8.48;4.93;;;;;;;13.81;100.00;102369.34;4974235;28;20034;-64
2022/08/08 00:38:43;;;;;;;6.45;5.82;;;;;;;14.12;100.00;102431.34;4975530;28;20519;-66
2022/08/08 00:41:33;;;;;;;6.30;5.75;;;;;;;14.12;100.00;102422.53;4975461;28;20061;-63
2022/08/08 00:44:12;;;;;;;7.97;5.50;;;;;;;14.00;100.00;102408.66;4975467;28;20038;-64
2022/08/08 00:47:05;;;;;;;7.25;5.70;;;;;;;14.07;100.00;102422.63;4975502;28;20414;-64
2022/08/08 00:50:01;;;;;;;9.60;5.50;;;;;;;14.03;100.00;102432.44;4975391;28;20503;-64
2022/08/08 00:53:03;;;;;;;6.18;5.03;;;;;;;14.01;100.00;102420.97;4975381;28;20026;-67
2022/08/08 00:55:31;;;;;;;7.90;5.60;;;;;;;14.00;100.00;102421.91;4975750;28;20058;-64
2022/08/08 00:58:21;;;;;;;7.07;6.30;;;;;;;14.04;100.00;102420.91;4975333;28;20041;-64
2022/08/08 01:00:58;;;;;;;6.55;5.15;;;;;;;14.10;100.00;102401.38;4975192;28;20034;-65
2022/08/08 01:03:52;;;;;;;8.93;5.43;;;;;;;13.81;100.00;102349.06;4990132;28;20426;-66
2022/08/08 01:06:35;;;;;;;8.48;5.13;;;;;;;14.12;100.00;102420.75;4975150;28;20109;-66
2022/08/08 01:09:19;;;;;;;7.13;4.82;;;;;;;14.09;100.00;102424.34;4975016;28;20055;-63
2022/08/08 01:12:10;;;;;;;5.38;4.88;;;;;;;14.06;100.00;102410.31;4974847;28;20085;-66
2022/08/08 01:14:47;;;;;;;7.00;5.00;;;;;;;14.02;100.00;102421.84;4973603;28;20089;-64
2022/08/08 01:17:19;;;;;;;7.15;5.47;;;;;;;13.97;100.00;102421.97;4975155;28;20505;-65
2022/08/08 01:20:02;;;;;;;8.18;6.13;;;;;;;13.95;100.00;102420.25;4974893;28;20505;-65
2022/08/08 01:22:48;;;;;;;8.65;6.30;;;;;;;13.81;100.00;102395.81;4975013;28;20097;-64
2022/08/08 01:25:44;;;;;;;7.07;5.28;;;;;;;13.87;100.00;102411.59;4974679;28;20509;-64
2022/08/08 01:28:43;;;;;;;10.18;4.95;;;;;;;13.83;100.00;102408.16;4974612;28;20117;-65
2022/08/08 01:31:46;;;;;;;10.52;5.18;;;;;;;13.77;100.00;102410.94;4974420;28;20039;-63
2022/08/08 01:34:42;;;;;;;5.60;5.10;;;;;;;13.75;100.00;102415.34;4974536;28;20038;-63
2022/08/08 01:37:42;;;;;;;5.88;4.75;;;;;;;13.70;100.00;102414.59;4974487;28;20035;-63
2022/08/08 01:40:28;;;;;;;7.63;5.70;;;;;;;13.66;100.00;102398.81;4989319;28;20066;-64
2022/08/08 01:43:35;;;;;;;6.88;5.60;;;;;;;13.64;100.00;102406.78;4974444;28;20433;-65
2022/08/08 01:46:25;;;;;;;8.10;4.90;;;;;;;13.63;100.00;102399.72;4972930;28;20042;-66
2022/08/08 01:49:14;;;;;;;7.43;5.35;;;;;;;13.62;100.00;102405.94;4974261;28;20034;-64
2022/08/08 01:52:03;;;;;;;6.90;5.88;;;;;;;13.60;100.00;102404.22;4972789;28;20056;-66
2022/08/08 01:54:58;;;;;;;7.32;4.75;;;;;;;13.57;100.00;102397.22;4973130;28;20114;-63
2022/08/08 01:57:30;;;;;;;6.70;5.00;;;;;;;13.54;100.00;102408.72;4973567;28;20130;-64
2022/08/08 02:00:05;;;;;;;6.47;5.20;;;;;;;13.50;100.00;102412.34;4974050;28;20038;-63
2022/08/08 02:02:48;;;;;;;6.10;4.78;;;;;;;13.46;100.00;102401.84;4974136;28;20034;-64
2022/08/08 02:05:31;;;;;;;6.60;5.93;;;;;;;13.51;100.00;102415.88;4973913;28;20031;-65
2022/08/08 02:08:05;;;;;;;6.43;5.82;;;;;;;13.51;100.00;102423.81;4988869;28;20039;-64
2022/08/08 02:10:37;;;;;;;9.27;6.22;;;;;;;13.49;100.00;102413.25;4972571;28;20050;-63
2022/08/08 02:13:13;;;;;;;11.27;6.97;;;;;;;13.50;100.00;102419.41;4973921;28;20117;-64
2022/08/08 02:15:55;;;;;;;7.88;6.80;;;;;;;13.51;100.00;102410.56;4972785;28;20033;-66
2022/08/08 02:18:20;;;;;;;8.27;6.30;;;;;;;13.50;100.00;102412.34;4973759;28;20077;-63
2022/08/08 02:23:50;;;;;;;6.97;6.28;;;;;;;13.12;100.00;102354.03;4972978;28;20134;-63
2022/08/08 02:26:23;;;;;;;9.93;6.28;;;;;;;13.46;100.00;102412.41;4972008;28;20058;-64
2022/08/08 02:28:56;;;;;;;6.72;5.95;;;;;;;13.44;100.00;102414.22;4988945;28;20030;-65
2022/08/08 02:32:09;;;;;;;7.07;6.47;;;;;;;13.45;100.00;102416.88;4973457;28;20466;-65
2022/08/08 02:34:52;;;;;;;9.52;6.90;;;;;;;13.45;100.00;102419.50;4973188;28;20549;-65
2022/08/08 02:37:42;;;;;;;9.38;6.60;;;;;;;13.47;100.00;102415.06;4973603;28;20494;-64
2022/08/08 02:40:11;;;;;;;8.63;6.80;;;;;;;13.23;100.00;102377.59;4973367;28;20530;-63
2022/08/08 02:42:51;;;;;;;7.07;6.15;;;;;;;13.45;100.00;102418.63;4988667;28;20038;-64
2022/08/08 02:45:32;;;;;;;10.85;7.22;;;;;;;13.43;100.00;102416.00;4973514;28;20117;-64
2022/08/08 02:48:04;;;;;;;;;;;;;;;13.42;100.00;102416.94;4974023;28;20380;-64
2022/08/08 02:51:06;;;;;;;8.80;6.55;;;;;;;13.39;100.00;102419.63;4973507;28;19918;-65
2022/08/08 02:53:43;;;;;;;9.63;7.07;;;;;;;13.35;100.00;102419.69;4973511;28;20045;-66
2022/08/08 02:56:24;;;;;;;10.75;7.15;;;;;;;13.33;100.00;102421.50;4972566;28;20053;-63
2022/08/08 02:59:26;;;;;;;7.88;6.93;;;;;;;13.29;100.00;102417.16;4973443;28;20062;-65
2022/08/08 03:02:35;;;;;;;7.70;6.88;;;;;;;13.24;100.00;102426.97;4973389;28;20042;-64
2022/08/08 03:05:37;;;;;;;8.38;6.82;;;;;;;13.21;100.00;102432.31;4988198;28;20026;-65
2022/08/08 03:08:21;;;;;;;11.60;8.50;;;;;;;13.21;100.00;102442.88;4973245;28;20039;-64
2022/08/08 03:10:49;;;;;;;8.25;7.45;;;;;;;12.92;100.00;102372.00;4973317;28;20093;-64
2022/08/08 03:13:39;;;;;;;7.93;7.13;;;;;;;12.95;100.00;102398.38;4972996;28;20081;-64
2022/08/08 03:16:44;;;;;;;10.70;8.02;;;;;;;13.06;100.00;102412.25;4987988;28;20542;-65
2022/08/08 03:19:36;;;;;;;9.55;8.20;;;;;;;13.16;100.00;102432.41;4954656;28;20474;-64
2022/08/08 03:22:01;;;;;;;9.63;7.82;;;;;;;13.12;100.00;102435.09;4973332;28;20211;-65
2022/08/08 03:24:27;;;;;;;9.27;8.20;;;;;;;13.02;100.00;102415.84;4973437;28;20035;-67
2022/08/08 03:26:57;;;;;;;10.50;8.05;;;;;;;12.75;100.00;102382.00;4973150;28;20035;-66
2022/08/08 03:29:29;;;;;;;10.93;8.93;;;;;;;12.68;100.00;102365.34;4955679;28;20030;-65
2022/08/08 03:34:38;;;;;;;9.93;7.82;;;;;;;12.79;100.00;102381.91;4973155;28;20045;-65
2022/08/08 03:37:04;;;;;;;12.10;8.73;;;;;;;12.72;100.00;102376.75;4973056;28;20122;-65
2022/08/08 03:39:29;;;;;;;11.30;8.80;;;;;;;12.89;100.00;102409.03;4975022;28;20101;-65
2022/08/08 03:41:54;;;;;;;9.82;7.88;;;;;;;13.03;100.00;102430.81;4991571;28;20089;-66
2022/08/08 03:44:20;;;;;;;8.80;7.78;;;;;;;12.99;100.00;102434.41;4976768;28;20046;-65
2022/08/08 03:46:46;;;;;;;9.98;8.52;;;;;;;13.00;100.00;102449.38;4976778;28;20035;-64
2022/08/08 03:49:17;;;;;;;8.95;7.93;;;;;;;12.71;100.00;102393.50;4976940;28;20062;-65
2022/08/08 03:51:42;;;;;;;9.18;7.47;;;;;;;12.95;100.00;102448.59;4976776;28;20035;-66
2022/08/08 03:54:08;;;;;;;9.20;8.27;;;;;;;12.92;100.00;102443.34;4976305;28;20039;-65
2022/08/08 03:56:33;;;;;;;9.32;7.28;;;;;;;12.90;100.00;102443.34;4975168;28;20045;-65
2022/08/08 03:58:59;;;;;;;10.23;8.60;;;;;;;12.59;100.00;102386.63;4976227;28;20043;-65
2022/08/08 04:01:36;;;;;;;9.27;8.05;;;;;;;12.83;100.00;102440.84;4976382;28;20066;-65
2022/08/08 04:04:02;;;;;;;10.57;8.05;;;;;;;12.87;100.00;102443.41;4976391;28;20034;-65
2022/08/08 04:06:28;;;;;;;10.18;7.97;;;;;;;12.90;100.00;102443.34;4976386;28;20042;-66
2022/08/08 04:08:53;;;;;;;9.20;7.97;;;;;;;12.86;100.00;102449.63;4974900;28;20525;-65
2022/08/08 04:11:18;;;;;;;8.65;7.85;;;;;;;12.90;100.00;102446.00;4976362;28;20134;-65
2022/08/08 04:13:44;;;;;;;10.23;7.93;;;;;;;12.88;100.00;102453.09;4975840;28;20486;-66
2022/08/08 04:16:09;;;;;;;10.23;7.45;;;;;;;12.89;100.00;102454.84;4974973;28;20039;-64
2022/08/08 04:18:34;;;;;;;11.38;8.15;;;;;;;12.59;100.00;102401.59;4974866;28;20046;-65
2022/08/08 04:21:00;;;;;;;11.93;8.75;;;;;;;12.91;100.00;102460.97;4991034;28;20138;-66
2022/08/08 04:23:25;;;;;;;12.57;9.00;;;;;;;12.57;100.00;102400.78;4975985;28;20038;-66
2022/08/08 04:25:50;;;;;;;13.18;9.55;;;;;;;12.95;100.00;102464.44;4990946;28;20043;-65
2022/08/08 04:28:16;;;;;;;13.60;10.88;;;;;;;12.69;100.00;102416.44;4975757;28;20035;-66
2022/08/08 04:30:41;;;;;;;14.02;10.55;;;;;;;12.63;100.00;102398.91;4975641;28;20071;-65
2022/08/08 04:33:06;;;;;;;12.20;10.85;;;;;;;12.78;100.00;102413.66;4975663;28;20113;-65
2022/08/08 04:35:32;;;;;;;10.93;9.82;;;;;;;12.83;100.00;102425.88;4975612;28;20117;-64
2022/08/08 04:37:57;;;;;;;13.05;11.70;;;;;;;13.17;100.00;102472.91;4975850;28;20434;-64
2022/08/08 04:40:22;;;;;;;15.73;10.40;;;;;;;13.12;100.00;102457.13;4975899;28;20058;-65
2022/08/08 04:42:48;;;;;;;13.63;10.88;;;;;;;13.27;100.00;102485.97;4975630;28;20058;-66
2022/08/08 04:45:13;;;;;;;15.50;11.75;;;;;;;13.30;100.00;102477.09;4975650;28;20031;-66
2022/08/08 04:47:39;;;;;;;12.50;11.00;;;;;;;13.36;100.00;102485.81;4990620;28;20501;-64
2022/08/08 04:50:05;;;;;;;15.27;11.18;;;;;;;13.39;100.00;102477.81;4974702;28;20035;-66
2022/08/08 04:52:30;;;;;;;16.75;10.55;;;;;;;13.20;100.00;102446.41;4975715;28;20398;-65
2022/08/08 04:54:56;;;;;;;14.52;11.20;;;;;;;13.43;100.00;102471.53;4975433;28;20081;-66
2022/08/08 04:57:21;;;;;;;13.82;9.88;;;;;;;13.51;100.00;102480.22;4975417;28;20081;-65
2022/08/08 04:59:46;;;;;;;11.68;10.52;;;;;;;13.44;100.00;102467.13;4975389;28;20489;-66
2022/08/08 05:02:12;;;;;;;11.43;10.13;;;;;;;13.56;100.00;102488.06;4975272;28;20035;-65
2022/08/08 05:04:37;;;;;;;11.98;10.77;;;;;;;13.62;100.00;102492.38;4990291;28;20054;-65
2022/08/08 05:07:03;;;;;;;11.25;10.05;;;;;;;13.69;100.00;102486.09;4990216;28;20031;-66
2022/08/08 05:09:28;;;;;;;12.38;10.68;;;;;;;13.67;100.00;102457.00;4975148;28;20035;-68
2022/08/08 05:11:54;;;;;;;16.02;10.05;;;;;;;13.90;100.00;102478.56;4990042;28;20474;-65
2022/08/08 05:14:19;;;;;;;12.48;9.55;;;;;;;13.99;100.00;102472.22;4973997;28;20464;-64
2022/08/08 05:16:45;;;;;;;12.90;10.45;;;;;;;13.98;100.00;102481.09;4974925;28;20034;-66
2022/08/08 05:19:13;;;;;;;12.05;9.27;;;;;;;14.10;100.00;102476.38;4975016;28;20039;-65
2022/08/08 05:21:39;;;;;;;12.30;9.77;;;;;;;14.14;100.00;102490.44;4974808;28;20035;-64
2022/08/08 05:24:05;;;;;;;12.27;9.70;;;;;;;14.13;100.00;102474.59;4974606;28;20035;-66
2022/08/08 05:26:31;;;;;;;12.68;9.13;;;;;;;13.95;100.00;102430.84;4974676;28;20478;-65
2022/08/08 05:28:56;;;;;;;12.20;9.27;;;;;;;14.29;100.00;102482.19;4973558;28;20122;-66
2022/08/08 05:31:22;;;;;;;9.32;8.38;;;;;;;14.38;100.00;102479.38;4974727;28;20117;-65
2022/08/08 05:33:47;;;;;;;11.77;9.20;;;;;;;14.19;100.00;102435.59;4989476;28;20494;-66
2022/08/08 05:36:15;;;;;;;14.30;9.27;;;;;;;14.44;100.00;102462.47;4974578;28;20042;-66
2022/08/08 05:38:45;;;;;;;13.68;8.65;;;;;;;14.55;100.00;102460.44;4974826;28;20117;-66
2022/08/08 05:41:14;;;;;;;11.82;7.85;;;;;;;14.51;100.00;102434.91;4973314;28;20046;-65
2022/08/08 05:43:40;;;;;;;9.73;7.57;;;;;;;14.62;100.00;102432.88;4974365;28;20065;-66
2022/08/08 05:46:08;;;;;;;10.90;7.35;;;;;;;15.07;100.00;102491.84;4974477;28;20037;-65
2022/08/08 05:48:34;;;;;;;7.95;6.82;;;;;;;15.19;100.00;102503.03;4974395;28;20035;-65
2022/08/08 05:50:59;;;;;;;12.05;7.88;;;;;;;15.22;100.00;102496.78;4972851;28;20406;-66
2022/08/08 05:53:24;;;;;;;9.27;7.53;;;;;;;15.34;100.00;102496.47;4989633;28;20042;-65
2022/08/08 05:55:52;;;;;;;13.02;7.65;;;;;;;15.11;100.00;102440.50;4974428;28;20031;-65
2022/08/08 05:58:19;;;;;;;8.93;7.03;;;;;;;15.49;100.00;102504.06;4973073;28;20066;-66
2022/08/08 06:00:47;;;;;;;11.73;7.57;;;;;;;15.62;100.00;102517.88;4972560;28;20119;-66
2022/08/08 06:03:16;;;;;;;12.65;7.88;;;;;;;15.38;100.00;102452.16;4988808;28;20039;-64
2022/08/08 06:05:48;;;;;;;8.57;7.05;;;;;;;15.77;100.00;102509.50;4974079;28;20100;-65
2022/08/08 06:08:13;;;;;;;9.20;7.80;;;;;;;15.89;100.00;102509.16;4974002;28;20023;-66
2022/08/08 06:10:39;;;;;;;9.48;8.10;;;;;;;15.97;100.00;102509.81;4974148;28;20533;-66
2022/08/08 06:13:06;;;;;;;9.55;7.82;;;;;;;16.08;100.00;102518.34;4973860;28;20039;-65
2022/08/08 06:15:31;;;;;;;8.95;6.88;;;;;;;16.16;100.00;102512.81;4972504;28;20065;-66
2022/08/08 06:17:57;;;;;;;11.70;7.13;;;;;;;16.25;100.00;102521.41;4973748;28;20062;-65
2022/08/08 06:20:23;;;;;;;10.98;7.10;;;;;;;16.31;100.00;102526.50;4972704;28;20401;-66
2022/08/08 06:22:48;;;;;;;12.68;7.90;;;;;;;16.36;100.00;102517.53;4974065;28;20034;-67
2022/08/08 06:25:14;;;;;;;10.48;7.43;;;;;;;16.54;100.00;102525.00;4973802;28;20039;-65
2022/08/08 06:27:44;;;;;;;13.13;6.97;;;;;;;16.64;100.00;102523.78;4973616;28;20398;-66
2022/08/08 06:30:11;;;;;;;8.75;6.85;;;;;;;16.50;100.00;102484.31;4973614;28;20023;-65
2022/08/08 06:32:56;;;;;;;10.57;7.32;;;;;;;16.54;100.00;102485.13;4973551;28;20419;-66
2022/08/08 06:35:23;;;;;;;8.30;6.03;;;;;;;16.92;100.00;102539.75;4972549;28;20478;-67
2022/08/08 06:37:51;;;;;;;9.43;7.25;;;;;;;16.96;100.00;102546.75;4972394;28;20410;-66
2022/08/08 06:40:18;;;;;;;8.23;6.57;;;;;;;16.73;100.00;102481.84;4987944;28;20411;-66
2022/08/08 06:43:04;;;;;;;10.38;6.40;;;;;;;17.19;100.00;102539.72;4972102;28;20306;-66
2022/08/08 06:45:32;;;;;;;8.07;6.22;;;;;;;17.34;100.00;102546.31;4972343;28;20364;-67
2022/08/08 06:47:59;;;;;;;7.20;6.38;;;;;;;17.30;100.00;102528.75;4956074;28;20090;-67
2022/08/08 06:50:24;;;;;;;8.15;5.97;;;;;;;17.34;100.00;102514.38;4973598;28;20134;-66
2022/08/08 06:52:50;;;;;;;9.45;6.30;;;;;;;17.67;100.00;102545.22;4974126;28;20117;-67
2022/08/08 06:55:17;;;;;;;7.32;5.72;;;;;;;17.71;100.00;102549.53;4972356;28;20034;-66
2022/08/08 06:57:42;;;;;;;9.93;5.75;;;;;;;17.80;100.00;102561.66;4972277;28;20129;-65
2022/08/08 07:00:08;;;;;;;9.38;6.68;;;;;;;17.87;100.00;102563.16;4973521;28;20043;-66
2022/08/08 07:02:34;;;;;;;8.52;6.22;;;;;;;17.67;100.00;102509.72;4973409;28;20494;-67
2022/08/08 07:05:08;;;;;;;7.28;5.47;;;;;;;17.88;100.00;102535.59;4988334;28;20125;-65
2022/08/08 07:07:52;;;;;;;8.43;5.40;;;;;;;18.08;100.00;102564.19;4973272;28;20081;-64
2022/08/08 07:10:20;;;;;;;12.63;7.13;;;;;;;17.82;100.00;102520.72;4972927;28;20493;-66
2022/08/08 07:12:54;;;;;;;8.82;6.22;;;;;;;18.20;100.00;102580.63;4974342;28;20495;-66
2022/08/08 07:15:48;;;;;;;8.13;5.35;;;;;;;18.32;100.00;102565.97;4977078;28;20031;-65
2022/08/08 07:18:36;;;;;;;7.95;5.47;;;;;;;18.43;100.00;102567.28;4976244;28;20047;-66
2022/08/08 07:21:05;;;;;;;6.78;4.40;;;;;;;18.65;100.00;102578.03;4976941;28;20101;-65
2022/08/08 07:23:39;;;;;;;7.40;4.95;;;;;;;18.88;100.00;102585.16;4977075;28;20463;-66
2022/08/08 07:26:05;;;;;;;6.97;5.55;;;;;;;18.98;100.00;102578.53;4975595;28;20031;-66
2022/08/08 07:28:30;;;;;;;7.90;4.55;;;;;;;19.14;100.00;102581.44;4976900;28;20489;-64
2022/08/08 07:30:57;;;;;;;9.73;4.65;;;;;;;19.00;100.00;102516.13;4991513;28;20038;-63
2022/08/08 07:33:23;;;;;;;9.57;4.47;;;;;;;19.61;100.00;102594.59;4976039;28;20043;-65
2022/08/08 07:35:49;;;;;;;6.68;4.07;;;;;;;19.60;100.00;102592.00;4975737;28;20038;-64
2022/08/08 07:38:18;;;;;;;6.45;4.10;;;;;;;19.67;100.00;102547.19;4976840;28;20050;-65
2022/08/08 07:40:47;;;;;;;4.38;2.80;;;;;;;20.38;100.00;102582.31;4974979;28;20146;-65
2022/08/08 07:43:13;;;;;;;5.55;3.00;;;;;;;20.53;100.00;102560.19;4974855;28;20057;-63
2022/08/08 07:45:41;;;;;;;7.07;3.85;;;;;;;20.49;100.00;102608.59;4976272;28;20130;-64
2022/08/08 07:48:06;;;;;;;7.05;2.72;;;;;;;20.66;100.00;102612.22;4977518;28;20125;-66
2022/08/08 07:50:32;;;;;;;7.95;2.95;;;;;;;21.07;100.00;102612.06;4976452;28;20081;-64
2022/08/08 07:53:15;;;;;;;4.32;2.28;;;;;;;20.92;100.00;102616.34;4976449;28;20042;-66
2022/08/08 07:55:46;;;;;;;5.35;2.72;;;;;;;20.73;100.00;102602.94;4976263;28;20041;-64
2022/08/08 07:58:17;;;;;;;5.65;2.80;;;;;;;20.90;100.00;102612.00;4993093;28;20653;-64
2022/08/08 08:00:44;;;;;;;4.00;2.75;;;;;;;21.17;100.00;102616.91;4994265;28;20107;-64
2022/08/08 08:03:11;;;;;;;4.93;3.03;;;;;;;21.84;100.00;102613.53;4994256;28;20065;-64
2022/08/08 08:05:42;;;;;;;3.97;2.78;;;;;;;22.65;100.00;102643.22;4963050;28;20535;-64
2022/08/08 08:08:22;;;;;;;3.72;2.38;;;;;;;23.43;100.00;102639.75;4977072;28;20038;-65
2022/08/08 08:10:52;;;;;;;4.38;2.03;;;;;;;23.81;100.00;102618.69;4980193;28;20038;-66
2022/08/08 08:14:10;;;;;;;6.60;2.33;;;;;;;23.23;100.00;102664.19;4977147;28;20050;-65
2022/08/08 08:16:38;;;;;;;4.20;2.08;;;;;;;22.24;100.00;102602.50;4961323;28;20065;-64
2022/08/08 08:19:05;;;;;;;4.10;2.00;;;;;;;22.50;100.00;102659.28;4983439;28;20037;-64
2022/08/08 08:21:40;;;;;;;3.65;1.90;;;;;;;22.61;100.00;102630.03;4994219;28;20038;-65
2022/08/08 08:24:06;;;;;;;3.20;2.25;;;;;;;22.81;100.00;102662.06;4991796;28;20123;-64
2022/08/08 08:26:31;;;;;;;9.88;2.72;;;;;;;22.00;100.00;102611.84;4994424;28;20498;-65
2022/08/08 08:28:57;;;;;;;4.20;2.30;;;;;;;22.28;100.00;102651.50;4977829;28;20034;-66
2022/08/08 08:31:23;;;;;;;2.75;2.13;;;;;;;22.20;100.00;102610.78;4995145;28;20042;-63
2022/08/08 08:33:49;;;;;;;7.25;2.70;;;;;;;22.38;100.00;102645.56;4995521;28;20026;-64
2022/08/08 08:36:14;;;;;;;4.40;2.50;;;;;;;21.74;100.00;102613.16;4994026;28;20096;-64
2022/08/08 08:38:40;;;;;;;5.43;2.63;;;;;;;21.63;100.00;102626.22;4988250;28;20453;-66
2022/08/08 08:41:07;;;;;;;4.95;2.88;;;;;;;21.26;100.00;102607.56;4986990;28;20070;-63
2022/08/08 08:43:34;;;;;;;3.10;2.40;;;;;;;21.12;100.00;102610.94;4975467;28;20039;-64
2022/08/08 08:46:00;;;;;;;4.35;2.30;;;;;;;20.85;100.00;102611.34;4975362;28;20027;-65
2022/08/08 08:48:26;;;;;;;3.55;2.47;;;;;;;20.96;100.00;102665.22;4987043;28;20054;-62
2022/08/08 08:50:52;;;;;;;5.15;2.58;;;;;;;20.49;100.00;102603.22;4994701;28;20457;-63
2022/08/08 08:53:18;;;;;;;2.33;2.10;;;;;;;20.26;100.00;102596.22;4994706;28;20041;-64
2022/08/08 08:55:44;;;;;;;6.53;2.42;;;;;;;20.25;100.00;102610.56;4993644;28;20458;-63
2022/08/08 08:58:24;;;;;;;3.45;2.03;;;;;;;20.46;100.00;102646.16;4993540;28;20042;-63
2022/08/08 09:00:50;;;;;;;5.88;1.80;;;;;;;20.13;100.00;102629.78;4993460;28;20397;-63
2022/08/08 09:03:15;;;;;;;1.77;1.55;;;;;;;20.27;100.00;102650.59;4993335;28;20038;-62
2022/08/08 09:05:42;;;;;;;3.20;1.80;;;;;;;19.95;100.00;102593.16;4993462;28;20034;-65
2022/08/08 09:08:08;;;;;;;4.90;1.70;;;;;;;20.16;100.00;102638.53;4993189;28;20026;-63
2022/08/08 09:10:38;;;;;;;5.13;1.80;;;;;;;20.19;100.00;102634.84;4994286;28;20042;-62
2022/08/08 09:13:05;;;;;;;2.85;1.85;;;;;;;20.09;100.00;102637.06;4991766;28;20037;-63
2022/08/08 09:15:31;;;;;;;2.83;1.90;;;;;;;20.06;100.00;102637.19;4992438;28;20038;-62
2022/08/08 09:17:57;;;;;;;2.75;1.58;;;;;;;20.02;100.00;102640.06;4958724;28;20155;-63
2022/08/08 09:20:25;;;;;;;2.83;1.80;;;;;;;20.07;100.00;102654.97;4972949;28;20379;-63
2022/08/08 09:22:54;;;;;;;4.70;1.70;;;;;;;20.04;100.00;102646.22;4974281;28;20039;-65
2022/08/08 09:25:20;;;;;;;2.90;1.50;;;;;;;19.80;100.00;102601.81;4973067;28;20039;-62
2022/08/08 09:27:45;;;;;;;3.00;1.73;;;;;;;20.84;100.00;102629.19;4974836;28;20035;-63
2022/08/08 09:30:13;;;;;;;2.88;1.60;;;;;;;22.42;100.00;102665.91;4974800;28;20043;-63
2022/08/08 09:32:43;;;;;;;2.42;1.20;;;;;;;23.90;100.00;102680.88;4974788;28;20089;-63
2022/08/08 09:35:11;;;;;;;2.63;1.10;;;;;;;24.63;100.00;102671.03;4977951;28;20395;-65
2022/08/08 09:37:52;;;;;;;1.35;1.10;;;;;;;25.51;100.00;102670.78;4974428;28;20035;-64
2022/08/08 09:40:28;;;;;;;3.47;1.00;;;;;;;26.52;100.00;102722.31;4974246;28;20063;-65
2022/08/08 09:43:08;;;;;;;1.80;0.77;;;;;;;26.34;100.00;102728.97;4972803;28;20034;-63
2022/08/08 09:45:48;;;;;;;2.13;1.08;;;;;;;25.89;100.00;102677.13;4974592;28;20054;-63
2022/08/08 09:48:16;;;;;;;2.03;0.83;;;;;;;26.70;100.00;102726.41;4972730;28;20106;-64
2022/08/08 09:50:43;;;;;;;3.33;1.00;;;;;;;26.85;100.00;102732.59;4972847;28;20246;-65
2022/08/08 09:53:09;;;;;;;3.47;0.95;;;;;;;26.86;100.00;102691.94;4973110;28;20093;-62
2022/08/08 09:55:35;;;;;;;3.83;1.27;;;;;;;26.93;100.00;102682.44;4973055;28;20430;-63
2022/08/08 09:58:17;;;;;;;1.75;0.80;;;;;;;26.78;100.00;102688.91;4972815;28;20026;-66
2022/08/08 10:00:45;;;;;;;1.45;0.88;;;;;;;26.75;100.00;102727.81;4974233;28;20118;-63
2022/08/08 10:03:13;;;;;;;1.27;0.80;;;;;;;26.04;100.00;102711.16;4972565;28;20494;-64
2022/08/08 10:05:40;;;;;;;3.08;1.10;;;;;;;25.80;100.00;102668.81;4972952;28;20035;-63
2022/08/08 10:08:06;;;;;;;2.28;0.82;;;;;;;26.76;100.00;102721.44;4972488;28;20035;-63
2022/08/08 10:10:35;;;;;;;1.50;0.88;;;;;;;27.14;100.00;102716.03;4972442;28;20077;-63
2022/08/08 10:13:01;;;;;;;1.13;0.85;;;;;;;27.62;100.00;102733.22;4973995;28;20054;-64
2022/08/08 10:15:35;;;;;;;3.55;1.27;;;;;;;28.01;100.00;102715.81;4973538;28;20039;-64
2022/08/08 10:18:01;;;;;;;1.00;0.60;;;;;;;28.17;100.00;102712.81;4987270;28;20418;-63
2022/08/08 10:20:28;;;;;;;2.42;0.77;;;;;;;28.41;100.00;102727.16;4972834;28;20042;-63
2022/08/08 10:22:59;;;;;;;2.25;0.90;;;;;;;28.71;100.00;102718.50;4973382;28;20038;-62
2022/08/08 10:25:25;;;;;;;1.48;0.80;;;;;;;28.38;100.00;102681.34;4972301;28;20412;-63
2022/08/08 10:27:52;;;;;;;1.58;1.02;;;;;;;29.08;100.00;102719.13;4973798;28;20479;-64
2022/08/08 10:30:19;;;;;;;3.65;1.02;;;;;;;29.45;100.00;102726.88;4973369;28;20042;-62
2022/08/08 10:32:56;;;;;;;1.48;0.80;;;;;;;29.93;100.00;102738.25;4973903;28;20046;-65
2022/08/08 10:35:25;;;;;;;2.92;1.00;;;;;;;29.24;97.61;102730.50;4972675;28;20034;-63
2022/08/08 10:37:59;;;;;;;2.67;1.13;;;;;;;29.27;100.00;102713.97;4973648;28;20037;-62
2022/08/08 10:40:26;;;;;;;1.10;0.80;;;;;;;29.20;98.14;102696.44;4973000;28;20123;-63
2022/08/08 10:42:57;;;;;;;3.00;0.80;;;;;;;28.44;100.00;102726.94;4973424;28;20438;-62
2022/08/08 10:45:23;;;;;;;1.35;0.75;;;;;;;26.71;100.00;102723.59;4973533;28;20470;-64
2022/08/08 10:47:53;;;;;;;1.60;0.95;;;;;;;25.49;100.00;102723.91;4971703;28;20042;-63
2022/08/08 10:50:19;;;;;;;;;;;;;;;25.15;100.00;102722.50;4973470;28;20042;-63
2022/08/08 10:52:44;;;;;;;3.47;1.30;;;;;;;25.55;100.00;102659.66;4973416;28;19914;-62
2022/08/08 10:55:18;;;;;;;1.50;0.80;;;;;;;26.66;100.00;102712.25;4973000;28;20034;-62
2022/08/08 10:57:48;;;;;;;2.35;1.00;;;;;;;27.70;100.00;102703.72;4973403;28;20035;-61
2022/08/08 11:00:20;;;;;;;3.58;1.05;;;;;;;28.45;100.00;102707.88;4973197;28;20504;-57
2022/08/08 11:02:45;;;;;;;3.55;1.30;;;;;;;26.94;100.00;102680.59;4973431;28;20041;-62
2022/08/08 11:05:12;;;;;;;2.25;0.80;;;;;;;26.87;100.00;102699.09;4972281;28;20031;-60
2022/08/08 11:07:42;;;;;;;1.92;0.80;;;;;;;26.37;100.00;102715.25;4972212;28;20045;-60
2022/08/08 11:10:09;;;;;;;4.95;3.25;;;;;;;25.80;100.00;102714.69;4973489;28;20249;-59
2022/08/08 11:12:44;;;;;;;1.40;1.02;;;;;;;25.27;100.00;102694.78;4973355;28;20544;-57
2022/08/08 11:15:12;;;;;;;1.52;1.08;;;;;;;25.33;100.00;102702.47;4970769;28;20086;-59
2022/08/08 11:17:38;;;;;;;2.63;1.30;;;;;;;25.97;100.00;102701.78;4972035;28;20042;-57
2022/08/08 11:20:04;;;;;;;2.10;0.70;;;;;;;26.26;100.00;102703.38;4971344;28;20031;-55
2022/08/08 11:22:30;;;;;;;2.40;0.70;;;;;;;26.50;100.00;102703.53;4972946;28;20482;-59
2022/08/08 11:25:00;;;;;;;1.23;0.63;;;;;;;27.65;100.00;102697.81;4971752;28;20467;-59
2022/08/08 11:27:30;;;;;;;1.83;0.88;;;;;;;27.69;100.00;102696.63;4972705;28;20030;-59
2022/08/08 11:29:57;;;;;;;1.73;1.17;;;;;;;26.08;100.00;102657.84;4973205;28;20031;-55
2022/08/08 11:32:27;;;;;;;3.17;1.20;;;;;;;25.58;100.00;102705.31;4972773;28;20041;-56
2022/08/08 11:34:58;;;;;;;1.00;0.80;;;;;;;25.01;100.00;102699.16;4955288;28;20442;-58
2022/08/08 11:37:24;;;;;;;3.35;1.02;;;;;;;24.61;100.00;102654.97;4972790;28;20066;-61
2022/08/08 11:39:50;;;;;;;2.42;0.90;;;;;;;25.89;100.00;102663.63;4971241;28;20055;-60
2022/08/08 11:42:16;;;;;;;1.80;1.10;;;;;;;27.35;100.00;102691.94;4970861;28;20059;-61
2022/08/08 11:44:44;;;;;;;2.88;1.00;;;;;;;27.57;100.00;102694.81;4969512;28;20031;-59